Latest Coastal Weather Observations for Newcastle Nobbys

IDN60701

Issued at 11:52 pm EST Sunday 25 September 2016 (issued every 10 minutes, with the page automatically refreshed every 10 minutes)

About coastal observations | Map of coastal stations | Coastal observations for NSW | Marine services | Other Formats
Station Details ID: 061055 Name: NEWCASTLE NOBBYS SIGNAL STATION AWS Lat: -32.92 Lon: 151.80 Height: 33.0 m
Data from the previous 72 hours. | See also: Recent months at Newcastle Nobbys
Date/Time
EST
Temp
°C
Wind Pressure Rain since
9am
mm
Weather Cloud Vis
km
Sea
Height
m
Swell
Dir  Spd
kts
Gust
kts
hPa Trend Height
m
Period
s
Dir
25/11:30pm 15.0 W 8 11 - - 4.8 - - - - - - -
25/11:00pm 14.7 WNW 8 10 - - 4.8 - - - - - - -
25/10:30pm 14.8 WNW 7 9 - - 4.8 - - - - - - -
25/10:00pm 14.7 WNW 8 10 - - 4.8 - - - - - - -
25/09:30pm 14.9 WNW 7 10 - - 4.8 - - - - - - -
25/09:00pm 15.4 WNW 4 5 - - 4.8 - - - - - - -
25/08:30pm 15.6 NW 7 9 - - 4.8 - - - - - - -
25/08:00pm 16.4 WSW 4 6 - - 4.8 - - - - - - -
25/07:30pm 16.5 SW 5 9 - - 4.8 - - - - - - -
25/07:00pm 16.3 WSW 6 9 - - 4.8 - - - - - - -
25/06:30pm 16.2 WSW 4 6 - - 4.8 - - - - - - -
25/06:00pm 16.2 W 5 7 - - 4.8 - - - - - - -
25/05:30pm 16.6 SSW 6 8 - - 4.8 - - - - - - -
25/05:00pm 16.3 S 9 12 - - 4.8 - - - - - - -
25/04:30pm 16.2 SW 9 20 - - 4.8 - - - - - - -
25/04:00pm 16.1 W 4 5 - - 4.8 - - - - - - -
25/03:30pm 15.1 S 11 15 - - 4.8 - - - - - - -
25/03:07pm 17.7 SSW 15 27 - - 0.2 - - - - - - -
25/03:00pm 19.1 SSE 11 15 - - 0.2 - - - - - - -
25/02:30pm 20.3 ESE 5 6 - - 0.2 - - - - - - -
25/02:00pm 19.2 SSE 7 9 - - 0.2 - - - - - - -
25/01:30pm 19.6 ESE 5 7 - - 0.2 - - - - - - -
25/01:00pm 18.9 ESE 7 9 - - 0.2 - - - - - - -
25/12:30pm 19.7 S 5 8 - - 0.2 - - - - - - -
25/12:00pm 20.9 WNW 10 14 - - 0.2 Recent precip. - - - - - -
25/11:30am 21.1 WNW 12 16 - - 0.2 - - - - - - -
25/11:00am 19.6 WNW 10 14 - - 0.0 - - - - - - -
25/10:30am 18.5 WNW 13 20 - - 0.0 - - - - - - -
25/10:00am 17.1 WNW 13 19 - - 0.0 - - - - - - -
25/09:30am 15.9 WNW 13 18 - - 0.0 - - - - - - -
25/09:00am 15.2 WNW 12 15 - - 4.0 Recent precip. - - - - - -
25/08:30am 14.1 NW 13 18 - - 4.0 - - - - - - -
25/08:00am 14.0 NW 9 12 - - 3.8 - - - - - - -
25/07:30am 14.0 NW 5 7 - - 3.6 - - - - - - -
25/07:00am 13.9 WNW 4 5 - - 3.0 - - - - - - -
25/06:30am 14.2 WSW 7 9 - - 2.0 - - - - - - -
25/06:00am 14.9 W 8 11 - - 1.0 Rain - - - - - -
25/05:30am 15.4 WSW 3 5 - - 0.4 - - - - - - -
25/05:00am 15.8 W 3 4 - - 0.4 - - - - - - -
25/04:30am 16.3 NW 7 9 - - 0.0 - - - - - - -
25/04:00am 16.2 WNW 9 11 - - 0.0 - - - - - - -
25/03:30am 15.8 NW 8 11 - - 0.0 - - - - - - -
25/03:00am 15.9 NW 7 8 - - 0.0 - - - - - - -
25/02:30am 16.2 NW 8 10 - - 0.0 - - - - - - -
25/02:00am 16.1 NNW 7 9 - - 0.0 - - - - - - -
25/01:30am 16.3 NW 6 9 - - 0.0 - - - - - - -
25/01:00am 16.4 NNW 9 11 - - 0.0 - - - - - - -
25/12:30am 16.6 NW 7 8 - - 0.0 - - - - - - -
25/12:00am 16.8 NW 7 9 - - 0.0 - - - - - - -
 
Date/Time
EST
Temp
°C
Wind Pressure Rain since
9am
mm
Weather Cloud Vis
km
Sea
Height
m
Swell
Dir  Spd
kts
Gust
kts
hPa Trend Height
m
Period
s
Dir
24/11:30pm 16.6 NW 3 4 - - 0.0 - - - - - - -
24/11:00pm 17.0 NNW 5 7 - - 0.0 - - - - - - -
24/10:30pm 17.2 NNW 5 6 - - 0.0 - - - - - - -
24/10:00pm 16.9 NNE 5 7 - - 0.0 - - - - - - -
24/09:30pm 16.7 N 8 10 - - 0.0 - - - - - - -
24/09:00pm 17.1 N 8 9 - - 0.0 - - - - - - -
24/08:30pm 17.3 N 6 8 - - 0.0 - - - - - - -
24/08:00pm 17.6 NNE 6 9 - - 0.0 - - - - - - -
24/07:30pm 17.8 NNE 7 8 - - 0.0 - - - - - - -
24/07:00pm 18.4 NE 8 11 - - 0.0 - - - - - - -
24/06:30pm 18.4 ENE 6 8 - - 0.0 - - - - - - -
24/06:00pm 18.8 E 7 9 - - 0.0 - - - - - - -
24/05:30pm 18.9 E 8 9 - - 0.0 - - - - - - -
24/05:00pm 19.0 ESE 8 9 - - 0.0 - - - - - - -
24/04:30pm 19.4 ESE 9 11 - - 0.0 - - - - - - -
24/04:00pm 19.6 SE 9 11 - - 0.0 - - - - - - -
24/03:30pm 19.6 SE 11 12 - - 0.0 - - - - - - -
24/03:00pm 19.9 SE 11 12 - - 0.0 - - - - - - -
24/02:30pm 19.6 SE 10 11 - - 0.0 - - - - - - -
24/02:00pm 19.5 SE 10 11 - - 0.0 - - - - - - -
24/01:30pm 19.6 SSE 10 11 - - 0.0 - - - - - - -
24/01:00pm 19.5 SSE 10 11 - - 0.0 - - - - - - -
24/12:30pm 19.3 SE 9 9 - - 0.0 - - - - - - -
24/12:00pm 19.3 SSE 9 10 - - 0.0 - - - - - - -
24/11:30am 18.9 S 10 11 - - 0.0 - - - - - - -
24/11:00am 18.6 S 9 11 - - 0.0 - - - - - - -
24/10:30am 18.6 S 9 9 - - 0.0 - - - - - - -
24/10:00am 19.0 S 8 9 - - 0.0 - - - - - - -
24/09:30am 18.5 S 7 8 - - 0.0 - - - - - - -
24/09:00am 18.0 SSW 7 11 - - 0.0 - - - - - - -
24/08:30am 18.0 SW 6 11 - - 0.0 - - - - - - -
24/08:00am 17.4 WSW 6 10 - - 0.0 - - - - - - -
24/07:30am 16.4 WNW 5 8 - - 0.0 - - - - - - -
24/07:00am 15.2 W 7 8 - - 0.0 - - - - - - -
24/06:30am 13.7 W 6 7 - - 0.0 - - - - - - -
24/06:00am 13.5 WNW 6 8 - - 0.0 - - - - - - -
24/05:30am 14.0 W 9 11 - - 0.0 - - - - - - -
24/05:00am 14.1 W 10 11 - - 0.0 - - - - - - -
24/04:30am 14.0 WNW 10 12 - - 0.0 - - - - - - -
24/04:00am 14.2 WNW 8 10 - - 0.0 - - - - - - -
24/03:30am 14.2 WNW 7 8 - - 0.0 - - - - - - -
24/03:00am 14.3 WNW 7 9 - - 0.0 - - - - - - -
24/02:30am 14.4 W 6 7 - - 0.0 - - - - - - -
24/02:00am 14.9 WSW 6 11 - - 0.0 - - - - - - -
24/01:30am 14.4 WNW 7 9 - - 0.0 - - - - - - -
24/01:00am 14.3 W 6 8 - - 0.0 - - - - - - -
24/12:30am 14.4 WNW 6 8 - - 0.0 - - - - - - -
24/12:00am 14.5 WNW 7 8 - - 0.0 - - - - - - -
 
Date/Time
EST
Temp
°C
Wind Pressure Rain since
9am
mm
Weather Cloud Vis
km
Sea
Height
m
Swell
Dir  Spd
kts
Gust
kts
hPa Trend Height
m
Period
s
Dir
23/11:30pm 14.8 W 6 8 - - 0.0 - - - - - - -
23/11:00pm 16.1 WSW 6 11 - - 0.0 - - - - - - -
23/10:30pm 16.3 SW 6 10 - - 0.0 - - - - - - -
23/10:00pm 16.5 WSW 6 11 - - 0.0 - - - - - - -
23/09:30pm 17.0 SW 9 13 - - 0.0 - - - - - - -
23/09:00pm 17.1 SSW 10 13 - - 0.0 - - - - - - -
23/08:30pm 17.5 SSW 10 18 - - 0.0 - - - - - - -
23/08:00pm 17.7 SSW 15 20 - - 0.0 - - - - - - -
23/07:30pm 17.6 SSW 15 21 - - 0.0 - - - - - - -
23/07:00pm 17.9 SSW 18 26 - - 0.0 - - - - - - -
23/06:48pm 17.9 SSW 18 28 - - 0.0 - - - - - - -
23/06:30pm 17.8 SSW 18 26 - - 0.0 - - - - - - -
23/06:00pm 17.8 SSW 17 25 - - 0.0 - - - - - - -
23/05:30pm 17.7 SSW 17 24 - - 0.0 - - - - - - -
23/05:00pm 17.8 SSW 16 21 - - 0.0 - - - - - - -
23/04:30pm 17.9 SSW 15 22 - - 0.0 - - - - - - -
23/04:00pm 17.9 SSW 18 25 - - 0.0 - - - - - - -
23/03:48pm 18.1 SSW 17 28 - - 0.0 - - - - - - -
23/03:30pm 18.2 SSW 17 27 - - 0.0 - - - - - - -
23/03:00pm 18.4 SSW 20 30 - - 0.0 - - - - - - -
23/02:58pm 18.4 SSW 20 30 - - 0.0 - - - - - - -
23/02:30pm 18.3 SSW 19 26 - - 0.0 - - - - - - -
23/02:00pm 18.2 SSW 18 25 - - 0.0 - - - - - - -
23/01:30pm 18.1 SSW 19 25 - - 0.0 - - - - - - -
23/01:00pm 18.2 SSW 18 25 - - 0.0 - - - - - - -
23/12:30pm 18.3 SSW 18 27 - - 0.0 - - - - - - -
23/12:00pm 18.1 SSW 19 27 - - 0.0 - - - - - - -
23/11:38am 18.5 SSW 17 27 - - 0.0 - - - - - - -
23/11:30am 18.4 SSW 18 25 - - 0.0 - - - - - - -
23/11:00am 18.6 SSW 17 24 - - 0.0 - - - - - - -
23/10:30am 18.8 SSW 16 24 - - 0.0 - - - - - - -
23/10:00am 18.6 SSW 17 26 - - 0.0 - - - - - - -
23/09:30am 18.5 SSW 15 22 - - 0.0 - - - - - - -
23/09:00am 18.2 SW 14 23 - - 0.0 - - - - - - -
23/08:30am 17.6 SW 12 20 - - 0.0 - - - - - - -
23/08:00am 17.0 WSW 11 16 - - 0.0 - - - - - - -
23/07:30am 16.9 WSW 11 18 - - 0.0 - - - - - - -
23/07:00am 16.5 WSW 13 21 - - 0.0 - - - - - - -
23/06:30am 16.4 WSW 11 18 - - 0.0 - - - - - - -
23/06:00am 16.4 WSW 9 17 - - 0.0 - - - - - - -
23/05:30am 16.4 WSW 10 16 - - 0.0 - - - - - - -
23/05:00am 16.4 WSW 9 13 - - 0.0 - - - - - - -
23/04:30am 16.5 WSW 10 15 - - 0.0 - - - - - - -
23/04:00am 16.6 W 12 19 - - 0.0 - - - - - - -
23/03:30am 16.6 W 13 19 - - 0.0 - - - - - - -
23/03:00am 16.7 WSW 14 23 - - 0.0 - - - - - - -
23/02:30am 16.7 W 14 20 - - 0.0 - - - - - - -
23/02:00am 16.4 W 13 22 - - 0.0 - - - - - - -
23/01:30am 15.8 WNW 10 13 - - 0.0 - - - - - - -
23/01:00am 15.8 W 11 15 - - 0.0 - - - - - - -
23/12:30am 16.0 WNW 12 16 - - 0.0 - - - - - - -
23/12:00am 16.1 WNW 13 18 - - 0.0 - - - - - - -

Other Formats:

Comma delimited format used in spreadsheet applications
http://www.bom.gov.au/fwo/IDN60701/IDN60701.94774.axf

JavaScript Object Notation format (JSON) in row-major order
http://www.bom.gov.au/fwo/IDN60701/IDN60701.94774.json